createdAt,value
2022-11-28T00:00:50.514Z,8.14
2022-11-28T00:02:21.921Z,6.79
2022-11-28T00:03:53.323Z,7.30
2022-11-28T00:05:24.623Z,7.71
2022-11-28T00:06:56.625Z,7.83
2022-11-28T00:08:28.118Z,7.11
2022-11-28T00:09:59.437Z,6.89
2022-11-28T00:11:30.939Z,6.51
2022-11-28T00:13:07.406Z,5.86
2022-11-28T00:14:38.895Z,6.93
2022-11-28T00:16:10.610Z,7.89
2022-11-28T00:17:42.155Z,6.23
2022-11-28T00:19:13.675Z,7.38
2022-11-28T00:20:45.677Z,7.45
2022-11-28T00:22:22.188Z,6.62
2022-11-28T00:23:53.909Z,7.12
2022-11-28T00:25:25.994Z,8.46
2022-11-28T00:26:57.427Z,8.40
2022-11-28T00:28:28.808Z,9.11
2022-11-28T00:30:00.611Z,9.53
2022-11-28T00:31:32.475Z,7.77
2022-11-28T00:33:04.348Z,8.70
2022-11-28T00:34:36.206Z,7.07
2022-11-28T00:36:07.645Z,6.32
2022-11-28T00:37:39.019Z,7.41
2022-11-28T00:39:12.545Z,7.45
2022-11-28T00:40:44.122Z,8.45
2022-11-28T00:42:15.439Z,8.54
2022-11-28T00:43:47.164Z,7.48
2022-11-28T00:45:18.915Z,6.87
2022-11-28T00:46:50.489Z,8.06
2022-11-28T00:48:21.859Z,7.27
2022-11-28T00:49:53.296Z,7.32
2022-11-28T00:51:24.718Z,7.55
2022-11-28T00:52:56.594Z,7.85
2022-11-28T00:54:28.155Z,7.33
2022-11-28T00:56:04.486Z,8.24
2022-11-28T00:57:35.803Z,8.53
2022-11-28T00:59:07.293Z,7.04
2022-11-28T01:00:38.796Z,7.72
2022-11-28T01:02:10.354Z,7.19
2022-11-28T01:03:41.814Z,6.80
2022-11-28T01:05:13.182Z,7.97
2022-11-28T01:06:44.546Z,7.70
2022-11-28T01:08:15.959Z,8.41
2022-11-28T01:09:47.265Z,8.53
2022-11-28T01:11:18.672Z,7.65
2022-11-28T01:12:50.215Z,7.73
2022-11-28T01:14:21.446Z,7.72
2022-11-28T01:15:53.054Z,6.70
2022-11-28T01:17:24.979Z,7.30
2022-11-28T01:18:56.536Z,6.68
2022-11-28T01:20:27.903Z,7.68
2022-11-28T01:21:59.696Z,6.96
2022-11-28T01:23:31.056Z,8.89
2022-11-28T01:25:04.192Z,7.97
2022-11-28T01:26:35.815Z,8.17
2022-11-28T01:28:07.154Z,7.90
2022-11-28T01:29:38.580Z,8.20
2022-11-28T01:31:10.179Z,8.31
2022-11-28T01:32:41.809Z,7.56
2022-11-28T01:34:13.348Z,8.72
2022-11-28T01:35:44.847Z,9.23
2022-11-28T01:37:17.485Z,9.21
2022-11-28T01:38:54.621Z,8.24
2022-11-28T01:40:26.279Z,7.97
2022-11-28T01:41:57.654Z,9.05
2022-11-28T01:43:29.359Z,8.21
2022-11-28T01:45:00.704Z,8.03
2022-11-28T01:46:32.859Z,8.88
2022-11-28T01:48:04.551Z,9.69
2022-11-28T01:49:35.859Z,8.43
2022-11-28T01:51:07.295Z,8.70
2022-11-28T01:52:38.501Z,9.29
2022-11-28T01:54:10.209Z,9.18
2022-11-28T01:55:41.880Z,9.80
2022-11-28T01:57:13.288Z,9.26
2022-11-28T01:58:45.036Z,8.08
2022-11-28T02:00:16.584Z,8.43
2022-11-28T02:01:48.024Z,8.53
2022-11-28T02:03:19.505Z,8.42
2022-11-28T02:04:50.950Z,8.80
2022-11-28T02:06:22.329Z,9.88
2022-11-28T02:07:54.027Z,9.15
2022-11-28T02:09:25.552Z,8.50
2022-11-28T02:10:56.882Z,7.73
2022-11-28T02:12:28.519Z,8.36
2022-11-28T02:13:59.975Z,8.52
2022-11-28T02:15:31.741Z,7.79
2022-11-28T02:17:03.662Z,8.57
2022-11-28T02:18:35.267Z,8.59
2022-11-28T02:20:06.541Z,8.42
2022-11-28T02:21:37.972Z,9.17
2022-11-28T02:23:09.616Z,10.23
2022-11-28T02:24:41.293Z,10.14
2022-11-28T02:26:12.738Z,7.90
2022-11-28T02:27:44.583Z,8.40
2022-11-28T02:29:16.090Z,8.15
2022-11-28T02:30:47.661Z,8.43
2022-11-28T02:32:19.063Z,8.95
2022-11-28T02:33:50.554Z,8.18
2022-11-28T02:35:22.327Z,8.91
2022-11-28T02:36:53.601Z,8.70
2022-11-28T02:38:24.969Z,8.57
2022-11-28T02:39:56.512Z,9.23
2022-11-28T02:41:28.951Z,8.38
2022-11-28T02:43:00.276Z,8.64
2022-11-28T02:44:31.557Z,7.69
2022-11-28T02:46:02.974Z,9.19
2022-11-28T02:47:34.312Z,7.64
2022-11-28T02:49:05.640Z,8.18
2022-11-28T02:50:37.145Z,8.54
2022-11-28T02:52:08.571Z,8.29
2022-11-28T02:53:40.081Z,8.23
2022-11-28T02:55:11.418Z,9.32
2022-11-28T02:56:42.647Z,9.24
2022-11-28T02:58:14.119Z,9.40
2022-11-28T02:59:45.475Z,8.11
2022-11-28T03:01:17.668Z,9.35
2022-11-28T03:02:49.324Z,9.06
2022-11-28T03:04:20.753Z,9.26
2022-11-28T03:05:52.589Z,11.48
2022-11-28T03:07:23.861Z,9.15
2022-11-28T03:08:55.155Z,8.13
2022-11-28T03:10:26.619Z,8.66
2022-11-28T03:11:58.061Z,9.31
2022-11-28T03:13:29.336Z,8.78
2022-11-28T03:15:00.863Z,9.95
2022-11-28T03:16:32.514Z,8.15
2022-11-28T03:18:03.898Z,8.27
2022-11-28T03:19:35.173Z,9.94
2022-11-28T03:21:06.506Z,9.31
2022-11-28T03:22:38.173Z,9.58
2022-11-28T03:24:09.390Z,8.39
2022-11-28T03:25:40.916Z,9.37
2022-11-28T03:27:12.834Z,9.28
2022-11-28T03:28:44.316Z,8.99
2022-11-28T03:30:16.256Z,9.67
2022-11-28T03:31:48.165Z,8.66
2022-11-28T03:33:19.535Z,9.75
2022-11-28T03:34:51.161Z,9.22
2022-11-28T03:36:22.449Z,8.81
2022-11-28T03:37:53.705Z,8.69
2022-11-28T03:39:25.038Z,8.51
2022-11-28T03:40:57.221Z,8.37
2022-11-28T03:42:28.641Z,7.91
2022-11-28T03:44:00.316Z,8.51
2022-11-28T03:45:31.908Z,7.57
2022-11-28T03:47:03.415Z,8.11
2022-11-28T03:48:35.066Z,8.22
2022-11-28T03:50:06.432Z,8.16
2022-11-28T03:51:37.774Z,7.84
2022-11-28T03:53:09.479Z,6.72
2022-11-28T03:54:41.107Z,7.48
2022-11-28T03:56:12.706Z,7.38
2022-11-28T03:57:44.250Z,8.36
2022-11-28T03:59:15.791Z,7.37
2022-11-28T04:00:47.821Z,7.64
2022-11-28T04:02:19.657Z,7.65
2022-11-28T04:03:50.898Z,7.81
2022-11-28T04:05:22.733Z,7.36
2022-11-28T04:06:54.096Z,7.25
2022-11-28T04:08:25.515Z,7.11
2022-11-28T04:09:56.835Z,7.88
2022-11-28T04:11:28.303Z,8.63
2022-11-28T04:12:59.735Z,7.42
2022-11-28T04:14:31.076Z,7.67
2022-11-28T04:16:02.651Z,7.09
2022-11-28T04:17:34.082Z,7.75
2022-11-28T04:19:05.398Z,7.51
2022-11-28T04:20:36.919Z,8.07
2022-11-28T04:22:08.554Z,7.24
2022-11-28T04:23:40.053Z,7.07
2022-11-28T04:25:11.445Z,6.52
2022-11-28T04:26:42.771Z,5.81
2022-11-28T04:28:14.073Z,8.01
2022-11-28T04:29:45.291Z,7.65
2022-11-28T04:31:16.725Z,7.25
2022-11-28T04:32:48.162Z,7.79
2022-11-28T04:34:19.843Z,7.82
2022-11-28T04:35:51.220Z,8.07
2022-11-28T04:37:22.523Z,8.05
2022-11-28T04:38:53.908Z,7.21
2022-11-28T04:40:25.175Z,8.32
2022-11-28T04:41:56.573Z,7.79
2022-11-28T04:43:27.833Z,8.50
2022-11-28T04:44:59.533Z,7.53
2022-11-28T04:46:30.884Z,8.84
2022-11-28T04:48:02.242Z,8.25
2022-11-28T04:49:33.803Z,8.25
2022-11-28T04:51:05.161Z,6.93
2022-11-28T04:52:36.583Z,8.00
2022-11-28T04:54:07.912Z,8.44
2022-11-28T04:55:39.149Z,8.32
2022-11-28T04:57:10.503Z,8.76
2022-11-28T04:58:41.709Z,8.60
2022-11-28T05:00:13.095Z,8.50
2022-11-28T05:01:44.645Z,8.34
2022-11-28T05:03:16.010Z,8.61
2022-11-28T05:04:47.349Z,8.28
2022-11-28T05:06:18.929Z,8.41
2022-11-28T05:07:50.325Z,9.71
2022-11-28T05:09:21.739Z,8.01
2022-11-28T05:10:52.950Z,8.98
2022-11-28T05:12:24.231Z,8.54
2022-11-28T05:13:55.588Z,8.23
2022-11-28T05:15:26.978Z,8.12
2022-11-28T05:16:58.463Z,8.27
2022-11-28T05:18:29.938Z,7.47
2022-11-28T05:20:01.271Z,7.65
2022-11-28T05:21:32.501Z,7.55
2022-11-28T05:23:03.847Z,7.38
2022-11-28T05:24:35.342Z,7.10
2022-11-28T05:26:06.748Z,7.73
2022-11-28T05:27:38.112Z,6.34
2022-11-28T05:29:09.527Z,7.19
2022-11-28T05:30:40.782Z,7.25
2022-11-28T05:32:12.280Z,6.65
2022-11-28T05:33:43.831Z,7.92
2022-11-28T05:35:15.115Z,7.52
2022-11-28T05:36:46.421Z,9.74
2022-11-28T05:38:17.720Z,9.28
2022-11-28T05:39:49.002Z,9.87
2022-11-28T05:41:20.418Z,9.12
2022-11-28T05:42:51.854Z,11.07
2022-11-28T05:44:26.882Z,9.54
2022-11-28T05:45:58.786Z,7.63
2022-11-28T05:47:30.119Z,6.36
2022-11-28T05:49:01.452Z,6.71
2022-11-28T05:50:35.781Z,6.02
2022-11-28T05:52:11.154Z,7.09
2022-11-28T05:53:42.554Z,6.00
2022-11-28T05:55:13.797Z,7.11
2022-11-28T05:57:13.644Z,6.63
2022-11-28T05:58:45.306Z,7.95
2022-11-28T06:00:16.734Z,7.42
2022-11-28T06:01:48.242Z,7.42
2022-11-28T06:03:19.668Z,7.89
2022-11-28T06:04:52.323Z,6.99
2022-11-28T06:06:24.033Z,6.66
2022-11-28T06:07:55.434Z,7.72
2022-11-28T06:09:27.027Z,6.98
2022-11-28T06:10:58.857Z,7.94
2022-11-28T06:12:30.227Z,7.09
2022-11-28T06:14:01.597Z,7.12
2022-11-28T06:15:37.541Z,6.62
2022-11-28T06:17:09.588Z,7.78
2022-11-28T06:18:40.976Z,6.99
2022-11-28T06:20:40.196Z,6.60
2022-11-28T06:22:11.674Z,8.13
2022-11-28T06:23:43.055Z,9.37
2022-11-28T06:25:14.428Z,7.77
2022-11-28T06:26:45.940Z,7.03
2022-11-28T06:28:17.242Z,7.28
2022-11-28T06:29:48.470Z,7.46
2022-11-28T06:31:20.032Z,7.72
2022-11-28T06:32:51.354Z,7.69
2022-11-28T06:34:22.783Z,8.05
2022-11-28T06:35:54.208Z,8.30
2022-11-28T06:37:25.518Z,9.17
2022-11-28T06:38:56.879Z,9.72
2022-11-28T06:40:28.281Z,7.94
2022-11-28T06:41:59.656Z,8.59
2022-11-28T06:43:30.962Z,8.30
2022-11-28T06:45:02.518Z,7.81
2022-11-28T06:46:33.898Z,7.99
2022-11-28T06:48:05.188Z,7.37
2022-11-28T06:49:36.477Z,7.27
2022-11-28T06:51:07.875Z,7.92
2022-11-28T06:52:39.342Z,8.13
2022-11-28T06:54:10.946Z,8.65
2022-11-28T06:55:42.150Z,8.75
2022-11-28T06:57:13.626Z,9.07
2022-11-28T06:58:44.846Z,9.52
2022-11-28T07:00:16.263Z,8.96
2022-11-28T07:01:47.944Z,8.81
2022-11-28T07:03:19.596Z,8.49
2022-11-28T07:04:51.264Z,9.22
2022-11-28T07:06:22.603Z,8.29
2022-11-28T07:07:54.688Z,9.12
2022-11-28T07:09:26.102Z,10.34
2022-11-28T07:10:57.683Z,10.40
2022-11-28T07:12:29.154Z,8.64
2022-11-28T07:14:00.661Z,8.56
2022-11-28T07:15:32.055Z,10.39
2022-11-28T07:17:03.521Z,10.00
2022-11-28T07:18:34.920Z,8.06
2022-11-28T07:20:06.183Z,8.25
2022-11-28T07:21:37.509Z,8.92
2022-11-28T07:23:08.924Z,8.68
2022-11-28T07:24:40.478Z,8.42
2022-11-28T07:26:11.784Z,8.44
2022-11-28T07:27:43.139Z,8.53
2022-11-28T07:29:14.477Z,9.06
2022-11-28T07:30:46.015Z,9.17
2022-11-28T07:32:17.369Z,8.17
2022-11-28T07:33:48.659Z,8.02
2022-11-28T07:35:20.036Z,8.51
2022-11-28T07:36:51.243Z,7.45
2022-11-28T07:38:22.572Z,7.68
2022-11-28T07:39:53.834Z,11.79
2022-11-28T07:41:26.810Z,8.95
2022-11-28T07:42:58.124Z,9.09
2022-11-28T07:44:29.534Z,8.10
2022-11-28T07:46:01.716Z,7.88
2022-11-28T07:47:33.096Z,8.05
2022-11-28T07:49:04.398Z,8.32
2022-11-28T07:50:35.768Z,8.13
2022-11-28T07:52:07.117Z,8.47
2022-11-28T07:53:38.370Z,9.62
2022-11-28T07:55:09.698Z,8.44
2022-11-28T07:57:04.519Z,8.55
2022-11-28T07:58:42.643Z,8.43
2022-11-28T08:00:14.111Z,8.93
2022-11-28T08:01:45.453Z,8.29
2022-11-28T08:03:16.896Z,8.53
2022-11-28T08:04:52.737Z,8.37
2022-11-28T08:06:26.463Z,9.22
2022-11-28T08:07:57.873Z,8.92
2022-11-28T08:09:30.298Z,8.81
2022-11-28T08:11:01.743Z,8.56
2022-11-28T08:12:33.137Z,9.01
2022-11-28T08:14:04.407Z,9.37
2022-11-28T08:15:35.586Z,9.64
2022-11-28T08:17:06.817Z,8.50
2022-11-28T08:18:38.272Z,9.17
2022-11-28T08:20:09.625Z,9.65
2022-11-28T08:21:41.048Z,7.74
2022-11-28T08:23:12.295Z,10.38
2022-11-28T08:24:43.853Z,10.28
2022-11-28T08:26:15.398Z,8.47
2022-11-28T08:27:46.977Z,11.56
2022-11-28T08:29:18.237Z,11.71
2022-11-28T08:30:49.689Z,9.98
2022-11-28T08:32:21.160Z,8.95
2022-11-28T08:33:52.484Z,9.52
2022-11-28T08:35:23.809Z,10.66
2022-11-28T08:36:55.093Z,9.28
2022-11-28T08:38:26.560Z,8.85
2022-11-28T08:39:57.770Z,9.09
2022-11-28T08:41:29.107Z,9.29
2022-11-28T08:43:00.383Z,10.60
2022-11-28T08:44:31.658Z,10.19
2022-11-28T08:46:03.023Z,9.11
2022-11-28T08:47:34.272Z,10.12
2022-11-28T08:49:05.717Z,9.55
2022-11-28T08:50:36.942Z,12.56
2022-11-28T08:52:08.178Z,8.16
2022-11-28T08:53:39.447Z,8.71
2022-11-28T08:55:10.964Z,8.56
2022-11-28T08:56:42.288Z,11.93
2022-11-28T08:58:13.666Z,9.45
2022-11-28T08:59:45.291Z,10.43
2022-11-28T09:01:16.930Z,8.60
2022-11-28T09:02:53.332Z,9.26
2022-11-28T09:04:24.701Z,8.56
2022-11-28T09:05:56.102Z,10.12
2022-11-28T09:07:27.690Z,8.96
2022-11-28T09:08:59.500Z,8.12
2022-11-28T09:10:30.789Z,8.73
2022-11-28T09:12:02.481Z,8.17
2022-11-28T09:13:33.776Z,10.90
2022-11-28T09:15:06.277Z,9.44
2022-11-28T09:16:58.058Z,8.63
2022-11-28T09:18:29.694Z,9.34
2022-11-28T09:20:00.988Z,9.14
2022-11-28T09:21:57.472Z,9.65
2022-11-28T09:23:34.293Z,11.27
2022-11-28T09:25:05.705Z,8.57
2022-11-28T09:26:42.131Z,10.00
2022-11-28T09:28:13.472Z,7.60
2022-11-28T09:29:45.100Z,7.92
2022-11-28T09:31:16.875Z,9.72
2022-11-28T09:32:48.185Z,9.00
2022-11-28T09:34:45.633Z,8.80
2022-11-28T09:36:17.015Z,9.04
2022-11-28T09:37:48.276Z,8.01
2022-11-28T09:39:19.561Z,8.66
2022-11-28T09:40:50.849Z,8.86
2022-11-28T09:42:27.253Z,8.71
2022-11-28T09:43:59.518Z,8.78
2022-11-28T09:45:30.785Z,7.44
2022-11-28T09:47:06.954Z,9.46
2022-11-28T09:48:38.212Z,8.38
2022-11-28T09:50:09.536Z,8.26
2022-11-28T09:51:40.773Z,7.77
2022-11-28T09:53:12.114Z,8.14
2022-11-28T09:54:43.422Z,7.86
2022-11-28T09:56:14.704Z,8.65
2022-11-28T09:57:46.100Z,8.18
2022-11-28T09:59:17.398Z,8.15
2022-11-28T10:00:54.087Z,8.24
2022-11-28T10:02:26.656Z,8.01
2022-11-28T10:03:58.136Z,10.58
2022-11-28T10:05:29.470Z,8.09
2022-11-28T10:07:01.045Z,7.88
2022-11-28T10:08:32.404Z,9.20
2022-11-28T10:10:03.678Z,8.40
2022-11-28T10:11:49.887Z,9.24
2022-11-28T10:13:21.710Z,8.43
2022-11-28T10:14:53.337Z,8.01
2022-11-28T10:16:24.637Z,9.28
2022-11-28T10:17:56.104Z,7.96
2022-11-28T10:19:52.807Z,8.59
2022-11-28T10:21:37.028Z,9.54
2022-11-28T10:23:08.788Z,8.91
2022-11-28T10:24:50.014Z,8.02
2022-11-28T10:26:46.848Z,8.74
2022-11-28T10:28:19.229Z,8.99
2022-11-28T10:29:50.534Z,8.96
2022-11-28T10:31:21.905Z,8.98
2022-11-28T10:32:53.330Z,8.20
2022-11-28T10:34:25.102Z,8.66
2022-11-28T10:35:56.541Z,9.08
2022-11-28T10:39:34.805Z,9.36
2022-11-28T10:41:17.410Z,10.11
2022-11-28T10:42:48.779Z,11.19
2022-11-28T10:44:21.627Z,11.99
2022-11-28T10:45:58.190Z,10.77
2022-11-28T10:47:29.575Z,10.72
2022-11-28T10:49:00.857Z,10.50
2022-11-28T10:50:42.650Z,10.66
2022-11-28T10:52:13.867Z,11.18
2022-11-28T10:53:50.192Z,10.37
2022-11-28T10:55:50.714Z,10.35
2022-11-28T10:58:04.887Z,8.79
2022-11-28T10:59:36.445Z,11.82
2022-11-28T11:01:07.752Z,10.91
2022-11-28T11:02:39.104Z,9.74
2022-11-28T11:04:10.464Z,11.69
2022-11-28T11:05:41.974Z,10.80
2022-11-28T11:07:19.413Z,11.26
2022-11-28T11:08:52.290Z,10.53
2022-11-28T11:10:23.528Z,10.01
2022-11-28T11:11:54.792Z,10.73
2022-11-28T11:13:25.982Z,9.98
2022-11-28T11:14:57.401Z,10.74
2022-11-28T11:16:28.783Z,10.56
2022-11-28T11:18:00.193Z,11.83
2022-11-28T11:19:31.538Z,11.76
2022-11-28T11:21:02.772Z,11.33
2022-11-28T11:22:34.012Z,10.40
2022-11-28T11:24:11.753Z,11.25
2022-11-28T11:25:43.016Z,11.29
2022-11-28T11:27:14.301Z,9.63
2022-11-28T11:28:46.043Z,11.18
2022-11-28T11:30:17.690Z,11.18
2022-11-28T11:32:23.091Z,11.63
2022-11-28T11:33:54.399Z,12.21
2022-11-28T11:35:25.677Z,10.79
2022-11-28T11:36:57.055Z,12.29
2022-11-28T11:38:31.170Z,10.96
2022-11-28T11:40:05.017Z,11.85
2022-11-28T11:41:36.390Z,10.49
2022-11-28T11:43:07.737Z,11.51
2022-11-28T11:44:39.051Z,10.53
2022-11-28T11:46:11.459Z,11.64
2022-11-28T11:47:42.743Z,11.55
2022-11-28T11:49:14.124Z,9.83
2022-11-28T11:50:45.480Z,11.21
2022-11-28T11:52:16.689Z,11.45
2022-11-28T11:53:47.924Z,10.23
2022-11-28T11:55:19.604Z,11.18
2022-11-28T11:57:00.648Z,11.40
2022-11-28T11:58:37.611Z,9.40
2022-11-28T12:00:08.947Z,10.81
2022-11-28T12:01:40.224Z,11.21
2022-11-28T12:03:11.696Z,9.94
2022-11-28T12:04:46.448Z,10.99
2022-11-28T12:06:19.457Z,9.35
2022-11-28T12:07:50.866Z,9.13
2022-11-28T12:09:22.182Z,11.10
2022-11-28T12:10:53.704Z,11.92
2022-11-28T12:12:25.026Z,10.48
2022-11-28T12:13:56.539Z,9.74
2022-11-28T12:15:28.107Z,10.72
2022-11-28T12:16:59.372Z,12.06
2022-11-28T12:18:30.802Z,13.37
2022-11-28T12:20:02.278Z,9.82
2022-11-28T12:21:33.773Z,9.65
2022-11-28T12:23:05.057Z,11.03
2022-11-28T12:24:36.394Z,13.30
2022-11-28T12:26:07.865Z,11.12
2022-11-28T12:27:39.389Z,10.06
2022-11-28T12:29:10.791Z,10.53
2022-11-28T12:30:44.775Z,11.02
2022-11-28T12:32:16.323Z,10.72
2022-11-28T12:33:47.632Z,11.20
2022-11-28T12:35:19.041Z,10.44
2022-11-28T12:36:50.351Z,10.98
2022-11-28T12:38:22.932Z,11.88
2022-11-28T12:39:54.468Z,10.66
2022-11-28T12:41:32.035Z,9.88
2022-11-28T12:43:03.880Z,9.83
2022-11-28T12:44:35.490Z,9.91
2022-11-28T12:46:06.799Z,9.58
2022-11-28T12:47:38.263Z,10.08
2022-11-28T12:49:09.634Z,8.80
2022-11-28T12:50:40.880Z,9.23
2022-11-28T12:52:12.245Z,9.09
2022-11-28T12:53:43.599Z,9.07
2022-11-28T12:55:14.904Z,8.13
2022-11-28T12:56:46.169Z,8.10
2022-11-28T12:58:17.585Z,9.99
2022-11-28T12:59:48.889Z,9.89
2022-11-28T13:01:20.462Z,8.33
2022-11-28T13:02:52.060Z,9.12
2022-11-28T13:04:23.445Z,9.98
2022-11-28T13:05:56.010Z,9.16
2022-11-28T13:07:27.362Z,9.53
2022-11-28T13:09:18.857Z,10.29
2022-11-28T13:10:50.372Z,9.90
2022-11-28T13:12:21.992Z,8.58
2022-11-28T13:13:53.400Z,9.79
2022-11-28T13:15:24.695Z,8.46
2022-11-28T13:16:56.208Z,8.40
2022-11-28T13:18:28.153Z,8.03
2022-11-28T13:19:59.537Z,8.55
2022-11-28T13:21:31.050Z,8.43
2022-11-28T13:23:02.617Z,8.63
2022-11-28T13:24:33.852Z,8.82
2022-11-28T13:26:05.421Z,9.03
2022-11-28T13:27:46.805Z,9.23
2022-11-28T13:29:18.094Z,9.34
2022-11-28T13:30:49.507Z,8.41
2022-11-28T13:32:20.801Z,8.93
2022-11-28T13:33:52.230Z,9.52
2022-11-28T13:35:23.497Z,8.22
2022-11-28T13:39:11.920Z,7.55
2022-11-28T13:40:43.889Z,9.24
2022-11-28T13:42:44.375Z,8.64
2022-11-28T13:44:30.568Z,8.15
2022-11-28T13:46:01.928Z,8.48
2022-11-28T13:47:33.251Z,9.54
2022-11-28T13:49:19.775Z,9.06
2022-11-28T13:50:51.579Z,9.16
2022-11-28T13:52:22.951Z,8.39
2022-11-28T13:53:54.793Z,7.61
2022-11-28T13:55:26.026Z,8.77
2022-11-28T13:56:57.412Z,7.34
2022-11-28T13:58:28.980Z,7.19
2022-11-28T14:00:00.582Z,9.03
2022-11-28T14:01:55.673Z,7.95
2022-11-28T14:03:29.336Z,9.01
2022-11-28T14:05:02.196Z,7.22
2022-11-28T14:06:58.749Z,8.54
2022-11-28T14:08:38.247Z,7.39
2022-11-28T14:10:09.566Z,9.10
2022-11-28T14:12:09.159Z,7.88
2022-11-28T14:13:42.784Z,8.35
2022-11-28T14:15:19.207Z,7.20
2022-11-28T14:16:52.151Z,8.13
2022-11-28T14:18:55.139Z,7.57
2022-11-28T14:20:27.665Z,8.49
2022-11-28T14:21:59.120Z,8.00
2022-11-28T14:23:31.719Z,7.93
2022-11-28T14:25:03.465Z,7.95
2022-11-28T14:26:34.799Z,6.78
2022-11-28T14:28:11.472Z,6.62
2022-11-28T14:30:04.397Z,7.32
2022-11-28T14:31:36.273Z,6.75
2022-11-28T14:33:08.056Z,7.61
2022-11-28T14:34:39.697Z,7.51
2022-11-28T14:36:11.416Z,6.62
2022-11-28T14:37:43.193Z,6.73
2022-11-28T14:39:14.825Z,6.76
2022-11-28T14:40:46.568Z,6.17
2022-11-28T14:42:43.929Z,8.34
2022-11-28T14:44:31.211Z,7.97
2022-11-28T14:46:03.171Z,8.63
2022-11-28T14:47:35.280Z,7.24
2022-11-28T14:49:06.809Z,6.57
2022-11-28T14:50:38.418Z,6.95
2022-11-28T14:52:37.087Z,6.74
2022-11-28T14:54:10.759Z,7.93
2022-11-28T14:55:42.519Z,8.07
2022-11-28T14:57:14.388Z,8.04
2022-11-28T14:58:46.218Z,7.37
2022-11-28T15:00:17.963Z,7.69
2022-11-28T15:01:49.965Z,7.66
2022-11-28T15:03:28.234Z,7.30
2022-11-28T15:04:59.884Z,7.34
2022-11-28T15:07:11.513Z,7.38
2022-11-28T15:08:42.998Z,7.29
2022-11-28T15:10:14.517Z,7.10
2022-11-28T15:11:45.811Z,6.90
2022-11-28T15:13:32.508Z,7.12
2022-11-28T15:15:20.880Z,7.87
2022-11-28T15:16:52.779Z,6.68
2022-11-28T15:18:24.257Z,6.85
2022-11-28T15:19:55.922Z,6.96
2022-11-28T15:21:27.559Z,7.09
2022-11-28T15:22:59.360Z,6.61
2022-11-28T15:24:30.966Z,7.50
2022-11-28T15:26:02.936Z,6.48
2022-11-28T15:27:34.416Z,8.10
2022-11-28T15:29:06.091Z,8.52
2022-11-28T15:30:37.567Z,6.86
2022-11-28T15:32:22.262Z,6.42
2022-11-28T15:33:53.806Z,6.68
2022-11-28T15:35:25.181Z,7.01
2022-11-28T15:37:06.719Z,6.06
2022-11-28T15:38:38.443Z,7.10
2022-11-28T15:40:09.982Z,7.72
2022-11-28T15:42:08.327Z,7.44
2022-11-28T15:43:39.788Z,6.72
2022-11-28T15:45:11.682Z,6.05
2022-11-28T15:46:48.315Z,6.39
2022-11-28T15:48:40.556Z,7.04
2022-11-28T15:50:12.162Z,6.77
2022-11-28T15:51:43.515Z,6.93
2022-11-28T15:53:14.989Z,7.00
2022-11-28T15:55:12.366Z,6.94
2022-11-28T15:56:44.278Z,8.48
2022-11-28T15:58:15.698Z,7.16
2022-11-28T15:59:47.098Z,6.35
2022-11-28T16:01:18.635Z,6.59
2022-11-28T16:02:50.064Z,6.82
2022-11-28T16:04:21.770Z,8.55
2022-11-28T16:05:53.389Z,7.94
2022-11-28T16:07:24.690Z,6.84
2022-11-28T16:08:56.034Z,7.04
2022-11-28T16:10:27.528Z,7.12
2022-11-28T16:11:58.840Z,6.99
2022-11-28T16:13:30.481Z,8.07
2022-11-28T16:15:02.051Z,7.43
2022-11-28T16:16:33.732Z,8.09
2022-11-28T16:18:05.133Z,7.50
2022-11-28T16:19:36.379Z,8.63
2022-11-28T16:21:07.612Z,8.10
2022-11-28T16:22:38.930Z,9.07
2022-11-28T16:24:11.685Z,6.84
2022-11-28T16:25:42.908Z,7.75
2022-11-28T16:27:14.389Z,7.67
2022-11-28T16:28:45.726Z,9.05
2022-11-28T16:30:16.999Z,8.30
2022-11-28T16:31:48.358Z,8.86
2022-11-28T16:33:21.875Z,8.57
2022-11-28T16:34:53.456Z,7.74
2022-11-28T16:36:30.328Z,9.06
2022-11-28T16:38:01.520Z,8.78
2022-11-28T16:39:36.536Z,10.92
2022-11-28T16:41:08.095Z,10.93
2022-11-28T16:42:39.489Z,11.05
2022-11-28T16:44:10.772Z,10.93
2022-11-28T16:45:42.118Z,8.26
2022-11-28T16:47:13.395Z,9.25
2022-11-28T16:48:45.090Z,8.69
2022-11-28T16:50:16.418Z,8.17
2022-11-28T16:51:48.569Z,7.35
2022-11-28T16:53:19.817Z,7.70
2022-11-28T16:54:51.149Z,8.20
2022-11-28T16:56:22.593Z,8.62
2022-11-28T16:57:53.915Z,8.42
2022-11-28T16:59:25.387Z,8.64
2022-11-28T17:00:56.735Z,8.47
2022-11-28T17:02:28.516Z,8.84
2022-11-28T17:03:59.785Z,7.44
2022-11-28T17:05:31.232Z,8.02
2022-11-28T17:07:02.502Z,9.13
2022-11-28T17:08:33.854Z,8.84
2022-11-28T17:10:05.157Z,8.64
2022-11-28T17:11:36.686Z,10.87
2022-11-28T17:13:07.931Z,9.58
2022-11-28T17:14:40.229Z,9.48
2022-11-28T17:16:11.575Z,9.07
2022-11-28T17:17:42.920Z,10.17
2022-11-28T17:19:14.373Z,10.17
2022-11-28T17:20:45.943Z,10.06
2022-11-28T17:22:17.167Z,10.27
2022-11-28T17:23:48.457Z,9.59
2022-11-28T17:25:19.838Z,10.99
2022-11-28T17:27:01.171Z,10.93
2022-11-28T17:28:37.423Z,10.48
2022-11-28T17:30:08.670Z,9.62
2022-11-28T17:31:39.941Z,9.49
2022-11-28T17:33:11.252Z,10.72
2022-11-28T17:34:43.036Z,10.19
2022-11-28T17:36:14.604Z,11.57
2022-11-28T17:37:50.877Z,9.81
2022-11-28T17:39:27.467Z,11.08
2022-11-28T17:40:58.683Z,9.53
2022-11-28T17:42:30.039Z,10.51
2022-11-28T17:44:01.455Z,10.78
2022-11-28T17:45:32.871Z,10.47
2022-11-28T17:47:04.298Z,10.81
2022-11-28T17:48:35.873Z,11.33
2022-11-28T17:50:07.170Z,11.62
2022-11-28T17:51:38.580Z,10.57
2022-11-28T17:53:09.781Z,11.69
2022-11-28T17:54:41.147Z,12.56
2022-11-28T17:56:12.448Z,11.21
2022-11-28T17:57:48.754Z,11.92
2022-11-28T17:59:20.006Z,12.77
2022-11-28T18:00:54.949Z,12.96
2022-11-28T18:02:28.820Z,11.58
2022-11-28T18:04:01.316Z,11.21
2022-11-28T18:05:37.695Z,12.26
2022-11-28T18:07:09.092Z,12.15
2022-11-28T18:08:40.378Z,10.64
2022-11-28T18:10:13.153Z,12.09
2022-11-28T18:11:44.775Z,12.64
2022-11-28T18:13:16.146Z,11.70
2022-11-28T18:14:47.899Z,12.49
2022-11-28T18:16:19.231Z,14.40
2022-11-28T18:17:50.624Z,14.22
2022-11-28T18:19:21.917Z,12.62
2022-11-28T18:20:53.364Z,12.94
2022-11-28T18:22:37.841Z,12.69
2022-11-28T18:24:09.176Z,13.52
2022-11-28T18:25:41.652Z,13.15
2022-11-28T18:28:19.330Z,12.88
2022-11-28T18:30:10.406Z,15.04
2022-11-28T18:31:43.298Z,13.30
2022-11-28T18:33:26.473Z,13.41
2022-11-28T18:34:58.364Z,13.85
2022-11-28T18:36:30.960Z,13.59
2022-11-28T18:38:12.786Z,14.18
2022-11-28T18:39:47.057Z,13.85
2022-11-28T18:41:38.420Z,14.60
2022-11-28T18:43:09.957Z,14.09
2022-11-28T18:44:41.559Z,13.85
2022-11-28T18:46:13.113Z,13.82
2022-11-28T18:47:44.823Z,14.55
2022-11-28T18:49:16.338Z,13.95
2022-11-28T18:50:47.870Z,13.48
2022-11-28T18:52:24.284Z,14.85
2022-11-28T18:53:55.685Z,14.87
2022-11-28T18:55:27.057Z,16.37
2022-11-28T18:57:03.502Z,14.88
2022-11-28T18:58:35.224Z,16.30
2022-11-28T19:00:26.803Z,15.35
2022-11-28T19:01:58.182Z,17.30
2022-11-28T19:03:30.777Z,16.82
2022-11-28T19:05:02.809Z,20.56
2022-11-28T19:06:34.357Z,18.27
2022-11-28T19:08:05.560Z,19.18
2022-11-28T19:09:36.765Z,20.64
2022-11-28T19:11:08.619Z,18.14
2022-11-28T19:12:39.942Z,20.79
2022-11-28T19:14:11.494Z,19.47
2022-11-28T19:15:47.681Z,20.11
2022-11-28T19:17:43.357Z,21.33
2022-11-28T19:19:14.699Z,22.85
2022-11-28T19:20:46.423Z,21.86
2022-11-28T19:22:17.768Z,22.80
2022-11-28T19:23:54.371Z,23.37
2022-11-28T19:25:25.762Z,23.26
2022-11-28T19:26:57.567Z,23.65
2022-11-28T19:28:29.109Z,24.23
2022-11-28T19:30:00.434Z,25.93
2022-11-28T19:31:31.948Z,24.90
2022-11-28T19:33:03.492Z,25.84
2022-11-28T19:34:34.739Z,25.46
2022-11-28T19:36:06.305Z,30.48
2022-11-28T19:37:37.734Z,26.98
2022-11-28T19:39:09.163Z,25.28
2022-11-28T19:40:59.095Z,25.28
2022-11-28T19:42:36.008Z,24.57
2022-11-28T19:44:14.039Z,26.05
2022-11-28T19:45:55.649Z,24.60
2022-11-28T19:47:27.147Z,23.48
2022-11-28T19:48:58.930Z,24.85
2022-11-28T19:50:30.622Z,25.24
2022-11-28T19:52:06.985Z,25.50
2022-11-28T19:54:06.329Z,23.45
2022-11-28T19:55:42.895Z,26.86
2022-11-28T19:57:22.030Z,25.29
2022-11-28T19:58:53.795Z,31.70
2022-11-28T20:00:35.916Z,28.03
2022-11-28T20:02:07.707Z,25.62
2022-11-28T20:03:39.730Z,23.66
2022-11-28T20:05:16.210Z,24.33
2022-11-28T20:06:47.673Z,27.92
2022-11-28T20:08:19.001Z,28.79
2022-11-28T20:10:37.667Z,26.53
2022-11-28T20:12:09.078Z,27.36
2022-11-28T20:13:41.064Z,24.89
2022-11-28T20:15:17.921Z,23.43
2022-11-28T20:17:01.840Z,22.84
2022-11-28T20:18:33.130Z,25.11
2022-11-28T20:20:08.520Z,26.40
2022-11-28T20:21:40.829Z,23.40
2022-11-28T20:23:12.680Z,23.62
2022-11-28T20:24:49.740Z,25.40
2022-11-28T20:26:27.983Z,25.91
2022-11-28T20:27:59.542Z,24.41
2022-11-28T20:29:58.347Z,24.99
2022-11-28T20:31:30.192Z,24.31
2022-11-28T20:33:52.700Z,25.07
2022-11-28T20:35:35.552Z,25.55
2022-11-28T20:37:07.387Z,26.74